sensor_id;sensor_type;location;lat;lon;timestamp;P1;durP1;ratioP1;P2;durP2;ratioP2
18274;SDS011;19470;49.322;7.218;2023-04-25T00:00:54;17.95;;;12.25;;
18274;SDS011;19470;49.322;7.218;2023-04-25T00:03:21;19.30;;;11.45;;
18274;SDS011;19470;49.322;7.218;2023-04-25T00:05:51;16.70;;;11.10;;
18274;SDS011;19470;49.322;7.218;2023-04-25T00:08:18;15.98;;;11.45;;
18274;SDS011;19470;49.322;7.218;2023-04-25T00:10:44;16.17;;;11.27;;
18274;SDS011;19470;49.322;7.218;2023-04-25T00:13:13;16.73;;;11.52;;
18274;SDS011;19470;49.322;7.218;2023-04-25T00:15:45;17.00;;;12.27;;
18274;SDS011;19470;49.322;7.218;2023-04-25T00:18:13;18.92;;;12.20;;
18274;SDS011;19470;49.322;7.218;2023-04-25T00:20:39;17.35;;;11.80;;
18274;SDS011;19470;49.322;7.218;2023-04-25T00:23:12;19.67;;;12.65;;
18274;SDS011;19470;49.322;7.218;2023-04-25T00:25:42;19.00;;;12.32;;
18274;SDS011;19470;49.322;7.218;2023-04-25T00:28:09;17.33;;;12.48;;
18274;SDS011;19470;49.322;7.218;2023-04-25T00:30:35;16.77;;;12.25;;
18274;SDS011;19470;49.322;7.218;2023-04-25T00:33:02;19.75;;;12.70;;
18274;SDS011;19470;49.322;7.218;2023-04-25T00:35:28;17.00;;;13.15;;
18274;SDS011;19470;49.322;7.218;2023-04-25T00:37:55;15.55;;;11.80;;
18274;SDS011;19470;49.322;7.218;2023-04-25T00:40:23;21.45;;;13.05;;
18274;SDS011;19470;49.322;7.218;2023-04-25T00:42:50;17.70;;;12.75;;
18274;SDS011;19470;49.322;7.218;2023-04-25T00:45:18;19.33;;;12.70;;
18274;SDS011;19470;49.322;7.218;2023-04-25T00:47:45;20.55;;;12.68;;
18274;SDS011;19470;49.322;7.218;2023-04-25T00:50:12;18.83;;;12.40;;
18274;SDS011;19470;49.322;7.218;2023-04-25T00:52:40;16.17;;;12.38;;
18274;SDS011;19470;49.322;7.218;2023-04-25T00:55:09;18.05;;;13.35;;
18274;SDS011;19470;49.322;7.218;2023-04-25T00:57:37;19.98;;;12.10;;
18274;SDS011;19470;49.322;7.218;2023-04-25T01:00:05;20.00;;;11.88;;
18274;SDS011;19470;49.322;7.218;2023-04-25T01:02:34;19.63;;;11.85;;
18274;SDS011;19470;49.322;7.218;2023-04-25T01:05:01;18.73;;;12.38;;
18274;SDS011;19470;49.322;7.218;2023-04-25T01:07:28;18.42;;;12.27;;
18274;SDS011;19470;49.322;7.218;2023-04-25T01:09:55;20.40;;;11.48;;
18274;SDS011;19470;49.322;7.218;2023-04-25T01:12:22;21.95;;;12.90;;
18274;SDS011;19470;49.322;7.218;2023-04-25T01:14:50;17.05;;;12.27;;
18274;SDS011;19470;49.322;7.218;2023-04-25T01:17:17;21.45;;;12.27;;
18274;SDS011;19470;49.322;7.218;2023-04-25T01:19:44;17.38;;;11.57;;
18274;SDS011;19470;49.322;7.218;2023-04-25T01:22:14;17.52;;;11.70;;
18274;SDS011;19470;49.322;7.218;2023-04-25T01:24:41;19.55;;;11.60;;
18274;SDS011;19470;49.322;7.218;2023-04-25T01:27:09;20.40;;;11.75;;
18274;SDS011;19470;49.322;7.218;2023-04-25T01:29:36;17.30;;;11.52;;
18274;SDS011;19470;49.322;7.218;2023-04-25T01:32:03;18.42;;;12.27;;
18274;SDS011;19470;49.322;7.218;2023-04-25T01:34:31;18.20;;;12.80;;
18274;SDS011;19470;49.322;7.218;2023-04-25T01:36:59;20.92;;;12.35;;
18274;SDS011;19470;49.322;7.218;2023-04-25T01:39:28;18.58;;;12.15;;
18274;SDS011;19470;49.322;7.218;2023-04-25T01:41:54;19.08;;;12.77;;
18274;SDS011;19470;49.322;7.218;2023-04-25T01:44:21;22.00;;;12.45;;
18274;SDS011;19470;49.322;7.218;2023-04-25T01:46:48;17.63;;;12.27;;
18274;SDS011;19470;49.322;7.218;2023-04-25T01:49:14;18.17;;;12.20;;
18274;SDS011;19470;49.322;7.218;2023-04-25T01:51:41;17.23;;;12.25;;
18274;SDS011;19470;49.322;7.218;2023-04-25T01:54:07;17.85;;;11.63;;
18274;SDS011;19470;49.322;7.218;2023-04-25T01:56:37;16.33;;;11.73;;
18274;SDS011;19470;49.322;7.218;2023-04-25T01:59:04;21.17;;;12.30;;
18274;SDS011;19470;49.322;7.218;2023-04-25T02:01:31;32.67;;;21.77;;
18274;SDS011;19470;49.322;7.218;2023-04-25T02:03:58;23.92;;;16.00;;
18274;SDS011;19470;49.322;7.218;2023-04-25T02:06:24;22.25;;;12.57;;
18274;SDS011;19470;49.322;7.218;2023-04-25T02:08:51;21.13;;;12.75;;
18274;SDS011;19470;49.322;7.218;2023-04-25T02:11:17;19.83;;;12.63;;
18274;SDS011;19470;49.322;7.218;2023-04-25T02:13:45;25.20;;;13.68;;
18274;SDS011;19470;49.322;7.218;2023-04-25T02:16:12;21.23;;;13.57;;
18274;SDS011;19470;49.322;7.218;2023-04-25T02:18:38;21.00;;;12.45;;
18274;SDS011;19470;49.322;7.218;2023-04-25T02:21:05;19.67;;;13.23;;
18274;SDS011;19470;49.322;7.218;2023-04-25T02:23:31;21.30;;;13.27;;
18274;SDS011;19470;49.322;7.218;2023-04-25T02:25:58;26.50;;;14.15;;
18274;SDS011;19470;49.322;7.218;2023-04-25T02:28:24;24.38;;;14.27;;
18274;SDS011;19470;49.322;7.218;2023-04-25T02:30:53;24.55;;;14.55;;
18274;SDS011;19470;49.322;7.218;2023-04-25T02:33:19;25.15;;;15.38;;
18274;SDS011;19470;49.322;7.218;2023-04-25T02:35:46;25.13;;;13.98;;
18274;SDS011;19470;49.322;7.218;2023-04-25T02:38:12;23.70;;;12.75;;
18274;SDS011;19470;49.322;7.218;2023-04-25T02:40:39;21.35;;;12.85;;
18274;SDS011;19470;49.322;7.218;2023-04-25T02:43:06;23.88;;;13.45;;
18274;SDS011;19470;49.322;7.218;2023-04-25T02:45:33;22.98;;;14.18;;
18274;SDS011;19470;49.322;7.218;2023-04-25T02:48:01;28.10;;;14.27;;
18274;SDS011;19470;49.322;7.218;2023-04-25T02:50:28;27.40;;;14.63;;
18274;SDS011;19470;49.322;7.218;2023-04-25T02:52:56;24.30;;;13.90;;
18274;SDS011;19470;49.322;7.218;2023-04-25T02:55:22;29.48;;;14.68;;
18274;SDS011;19470;49.322;7.218;2023-04-25T02:57:49;26.23;;;14.73;;
18274;SDS011;19470;49.322;7.218;2023-04-25T03:00:15;27.25;;;14.20;;
18274;SDS011;19470;49.322;7.218;2023-04-25T03:02:42;30.77;;;15.40;;
18274;SDS011;19470;49.322;7.218;2023-04-25T03:05:10;26.70;;;16.10;;
18274;SDS011;19470;49.322;7.218;2023-04-25T03:07:36;29.55;;;16.00;;
18274;SDS011;19470;49.322;7.218;2023-04-25T03:10:04;27.25;;;15.98;;
18274;SDS011;19470;49.322;7.218;2023-04-25T03:12:31;24.35;;;14.70;;
18274;SDS011;19470;49.322;7.218;2023-04-25T03:14:58;25.90;;;14.55;;
18274;SDS011;19470;49.322;7.218;2023-04-25T03:17:24;23.70;;;14.75;;
18274;SDS011;19470;49.322;7.218;2023-04-25T03:19:51;27.30;;;14.63;;
18274;SDS011;19470;49.322;7.218;2023-04-25T03:22:19;27.25;;;14.60;;
18274;SDS011;19470;49.322;7.218;2023-04-25T03:24:45;27.00;;;15.02;;
18274;SDS011;19470;49.322;7.218;2023-04-25T03:27:12;29.17;;;15.30;;
18274;SDS011;19470;49.322;7.218;2023-04-25T03:29:38;26.77;;;14.25;;
18274;SDS011;19470;49.322;7.218;2023-04-25T03:32:05;21.58;;;13.07;;
18274;SDS011;19470;49.322;7.218;2023-04-25T03:34:32;22.67;;;13.38;;
18274;SDS011;19470;49.322;7.218;2023-04-25T03:36:58;20.77;;;13.10;;
18274;SDS011;19470;49.322;7.218;2023-04-25T03:39:27;23.50;;;13.25;;
18274;SDS011;19470;49.322;7.218;2023-04-25T03:41:53;21.55;;;13.25;;
18274;SDS011;19470;49.322;7.218;2023-04-25T03:44:19;19.63;;;12.32;;
18274;SDS011;19470;49.322;7.218;2023-04-25T03:46:46;19.20;;;12.35;;
18274;SDS011;19470;49.322;7.218;2023-04-25T03:49:13;20.25;;;13.43;;
18274;SDS011;19470;49.322;7.218;2023-04-25T03:51:51;22.55;;;13.77;;
18274;SDS011;19470;49.322;7.218;2023-04-25T03:54:18;20.95;;;13.25;;
18274;SDS011;19470;49.322;7.218;2023-04-25T03:56:45;19.48;;;12.68;;
18274;SDS011;19470;49.322;7.218;2023-04-25T03:59:13;19.05;;;12.40;;
18274;SDS011;19470;49.322;7.218;2023-04-25T04:01:40;19.25;;;12.15;;
18274;SDS011;19470;49.322;7.218;2023-04-25T04:04:06;18.85;;;12.05;;
18274;SDS011;19470;49.322;7.218;2023-04-25T04:06:33;22.98;;;13.40;;
18274;SDS011;19470;49.322;7.218;2023-04-25T04:08:59;18.60;;;11.70;;
18274;SDS011;19470;49.322;7.218;2023-04-25T04:11:25;21.40;;;12.88;;
18274;SDS011;19470;49.322;7.218;2023-04-25T04:13:53;22.02;;;13.88;;
18274;SDS011;19470;49.322;7.218;2023-04-25T04:16:20;21.33;;;13.43;;
18274;SDS011;19470;49.322;7.218;2023-04-25T04:18:46;21.10;;;13.73;;
18274;SDS011;19470;49.322;7.218;2023-04-25T04:21:13;22.17;;;12.02;;
18274;SDS011;19470;49.322;7.218;2023-04-25T04:23:39;17.95;;;12.57;;
18274;SDS011;19470;49.322;7.218;2023-04-25T04:26:06;23.50;;;12.73;;
18274;SDS011;19470;49.322;7.218;2023-04-25T04:28:33;19.67;;;11.93;;
18274;SDS011;19470;49.322;7.218;2023-04-25T04:31:02;20.73;;;13.05;;
18274;SDS011;19470;49.322;7.218;2023-04-25T04:33:29;18.23;;;12.55;;
18274;SDS011;19470;49.322;7.218;2023-04-25T04:35:56;21.08;;;12.68;;
18274;SDS011;19470;49.322;7.218;2023-04-25T04:38:23;18.10;;;11.75;;
18274;SDS011;19470;49.322;7.218;2023-04-25T04:40:53;19.00;;;12.88;;
18274;SDS011;19470;49.322;7.218;2023-04-25T04:43:19;18.30;;;11.48;;
18274;SDS011;19470;49.322;7.218;2023-04-25T04:45:47;21.58;;;13.98;;
18274;SDS011;19470;49.322;7.218;2023-04-25T04:48:16;22.20;;;12.90;;
18274;SDS011;19470;49.322;7.218;2023-04-25T04:50:42;18.83;;;12.88;;
18274;SDS011;19470;49.322;7.218;2023-04-25T04:53:11;21.65;;;12.70;;
18274;SDS011;19470;49.322;7.218;2023-04-25T04:55:37;25.27;;;14.75;;
18274;SDS011;19470;49.322;7.218;2023-04-25T04:58:04;22.35;;;14.23;;
18274;SDS011;19470;49.322;7.218;2023-04-25T05:00:30;26.85;;;14.52;;
18274;SDS011;19470;49.322;7.218;2023-04-25T05:02:58;24.75;;;14.43;;
18274;SDS011;19470;49.322;7.218;2023-04-25T05:05:26;23.30;;;15.10;;
18274;SDS011;19470;49.322;7.218;2023-04-25T05:07:52;24.05;;;14.20;;
18274;SDS011;19470;49.322;7.218;2023-04-25T05:10:19;26.80;;;15.77;;
18274;SDS011;19470;49.322;7.218;2023-04-25T05:12:45;22.92;;;15.43;;
18274;SDS011;19470;49.322;7.218;2023-04-25T05:15:12;24.90;;;15.23;;
18274;SDS011;19470;49.322;7.218;2023-04-25T05:21:03;22.50;;;14.27;;
18274;SDS011;19470;49.322;7.218;2023-04-25T05:23:30;24.73;;;15.15;;
18274;SDS011;19470;49.322;7.218;2023-04-25T05:25:58;23.45;;;15.55;;
18274;SDS011;19470;49.322;7.218;2023-04-25T05:28:24;24.23;;;15.70;;
18274;SDS011;19470;49.322;7.218;2023-04-25T05:30:51;25.88;;;16.20;;
18274;SDS011;19470;49.322;7.218;2023-04-25T05:33:18;27.88;;;16.30;;
18274;SDS011;19470;49.322;7.218;2023-04-25T05:35:51;24.33;;;16.33;;
18274;SDS011;19470;49.322;7.218;2023-04-25T05:38:19;26.40;;;15.80;;
18274;SDS011;19470;49.322;7.218;2023-04-25T05:40:45;24.05;;;15.20;;
18274;SDS011;19470;49.322;7.218;2023-04-25T05:43:11;32.85;;;16.90;;
18274;SDS011;19470;49.322;7.218;2023-04-25T05:45:44;30.90;;;16.55;;
18274;SDS011;19470;49.322;7.218;2023-04-25T05:48:11;33.05;;;21.17;;
18274;SDS011;19470;49.322;7.218;2023-04-25T05:50:38;26.35;;;17.38;;
18274;SDS011;19470;49.322;7.218;2023-04-25T05:53:04;27.13;;;16.10;;
18274;SDS011;19470;49.322;7.218;2023-04-25T05:55:32;27.25;;;16.63;;
18274;SDS011;19470;49.322;7.218;2023-04-25T05:57:58;30.60;;;17.98;;
18274;SDS011;19470;49.322;7.218;2023-04-25T06:00:25;32.35;;;17.63;;
18274;SDS011;19470;49.322;7.218;2023-04-25T06:02:52;29.83;;;17.63;;
18274;SDS011;19470;49.322;7.218;2023-04-25T06:05:19;31.25;;;17.73;;
18274;SDS011;19470;49.322;7.218;2023-04-25T06:07:46;32.95;;;18.20;;
18274;SDS011;19470;49.322;7.218;2023-04-25T06:10:13;32.10;;;19.05;;
18274;SDS011;19470;49.322;7.218;2023-04-25T06:12:41;33.20;;;19.10;;
18274;SDS011;19470;49.322;7.218;2023-04-25T06:15:08;33.53;;;19.77;;
18274;SDS011;19470;49.322;7.218;2023-04-25T06:17:35;33.92;;;19.60;;
18274;SDS011;19470;49.322;7.218;2023-04-25T06:20:02;34.70;;;19.00;;
18274;SDS011;19470;49.322;7.218;2023-04-25T06:22:29;35.13;;;20.00;;
18274;SDS011;19470;49.322;7.218;2023-04-25T06:24:55;35.53;;;19.48;;
18274;SDS011;19470;49.322;7.218;2023-04-25T06:27:23;37.38;;;20.25;;
18274;SDS011;19470;49.322;7.218;2023-04-25T06:29:51;32.97;;;19.55;;
18274;SDS011;19470;49.322;7.218;2023-04-25T06:32:18;32.72;;;19.83;;
18274;SDS011;19470;49.322;7.218;2023-04-25T06:34:44;29.90;;;17.58;;
18274;SDS011;19470;49.322;7.218;2023-04-25T06:37:11;31.50;;;17.92;;
18274;SDS011;19470;49.322;7.218;2023-04-25T06:39:37;35.83;;;18.52;;
18274;SDS011;19470;49.322;7.218;2023-04-25T06:42:04;32.42;;;20.15;;
18274;SDS011;19470;49.322;7.218;2023-04-25T06:44:30;33.35;;;19.08;;
18274;SDS011;19470;49.322;7.218;2023-04-25T06:46:58;36.17;;;22.75;;
18274;SDS011;19470;49.322;7.218;2023-04-25T06:49:25;33.72;;;21.65;;
18274;SDS011;19470;49.322;7.218;2023-04-25T06:51:51;34.67;;;20.80;;
18274;SDS011;19470;49.322;7.218;2023-04-25T06:54:18;30.20;;;19.17;;
18274;SDS011;19470;49.322;7.218;2023-04-25T06:56:44;33.80;;;20.75;;
18274;SDS011;19470;49.322;7.218;2023-04-25T06:59:11;30.75;;;19.63;;
18274;SDS011;19470;49.322;7.218;2023-04-25T07:01:37;31.73;;;20.73;;
18274;SDS011;19470;49.322;7.218;2023-04-25T07:04:05;29.55;;;19.90;;
18274;SDS011;19470;49.322;7.218;2023-04-25T07:06:32;30.30;;;19.27;;
18274;SDS011;19470;49.322;7.218;2023-04-25T07:08:58;31.55;;;19.75;;
18274;SDS011;19470;49.322;7.218;2023-04-25T07:11:25;29.70;;;20.67;;
18274;SDS011;19470;49.322;7.218;2023-04-25T07:13:51;31.13;;;19.45;;
18274;SDS011;19470;49.322;7.218;2023-04-25T07:16:17;28.77;;;19.67;;
18274;SDS011;19470;49.322;7.218;2023-04-25T07:18:44;32.22;;;20.88;;
18274;SDS011;19470;49.322;7.218;2023-04-25T07:21:12;27.00;;;20.75;;
18274;SDS011;19470;49.322;7.218;2023-04-25T07:23:38;23.45;;;18.13;;
18274;SDS011;19470;49.322;7.218;2023-04-25T07:26:05;26.60;;;18.55;;
18274;SDS011;19470;49.322;7.218;2023-04-25T07:28:32;25.58;;;19.60;;
18274;SDS011;19470;49.322;7.218;2023-04-25T07:30:58;22.27;;;19.73;;
18274;SDS011;19470;49.322;7.218;2023-04-25T07:33:25;20.58;;;18.45;;
18274;SDS011;19470;49.322;7.218;2023-04-25T07:35:51;22.83;;;18.90;;
18274;SDS011;19470;49.322;7.218;2023-04-25T07:38:19;24.13;;;20.38;;
18274;SDS011;19470;49.322;7.218;2023-04-25T07:40:47;112.75;;;105.95;;
18274;SDS011;19470;49.322;7.218;2023-04-25T07:43:13;34.95;;;32.08;;
18274;SDS011;19470;49.322;7.218;2023-04-25T07:45:41;73.03;;;68.20;;
18274;SDS011;19470;49.322;7.218;2023-04-25T07:48:08;24.67;;;22.02;;
18274;SDS011;19470;49.322;7.218;2023-04-25T07:50:35;19.20;;;17.40;;
18274;SDS011;19470;49.322;7.218;2023-04-25T07:53:01;20.63;;;18.83;;
18274;SDS011;19470;49.322;7.218;2023-04-25T07:55:29;52.63;;;49.20;;
18274;SDS011;19470;49.322;7.218;2023-04-25T07:57:56;16.00;;;14.25;;
18274;SDS011;19470;49.322;7.218;2023-04-25T08:00:22;15.05;;;13.55;;
18274;SDS011;19470;49.322;7.218;2023-04-25T08:02:49;15.50;;;13.60;;
18274;SDS011;19470;49.322;7.218;2023-04-25T08:05:16;16.42;;;14.75;;
18274;SDS011;19470;49.322;7.218;2023-04-25T08:07:43;19.42;;;16.00;;
18274;SDS011;19470;49.322;7.218;2023-04-25T08:10:09;16.25;;;14.57;;
18274;SDS011;19470;49.322;7.218;2023-04-25T08:12:37;18.20;;;16.50;;
18274;SDS011;19470;49.322;7.218;2023-04-25T08:15:04;20.00;;;18.30;;
18274;SDS011;19470;49.322;7.218;2023-04-25T08:17:32;17.60;;;15.32;;
18274;SDS011;19470;49.322;7.218;2023-04-25T08:19:58;20.80;;;18.95;;
18274;SDS011;19470;49.322;7.218;2023-04-25T08:22:25;16.30;;;14.55;;
18274;SDS011;19470;49.322;7.218;2023-04-25T08:24:51;14.68;;;13.27;;
18274;SDS011;19470;49.322;7.218;2023-04-25T08:27:18;42.13;;;39.28;;
18274;SDS011;19470;49.322;7.218;2023-04-25T08:29:47;21.92;;;20.00;;
18274;SDS011;19470;49.322;7.218;2023-04-25T08:32:13;17.88;;;13.48;;
18274;SDS011;19470;49.322;7.218;2023-04-25T08:34:40;16.92;;;15.32;;
18274;SDS011;19470;49.322;7.218;2023-04-25T08:37:08;26.73;;;24.60;;
18274;SDS011;19470;49.322;7.218;2023-04-25T08:39:35;15.88;;;11.75;;
18274;SDS011;19470;49.322;7.218;2023-04-25T08:42:02;20.90;;;14.75;;
18274;SDS011;19470;49.322;7.218;2023-04-25T08:44:32;39.17;;;24.38;;
18274;SDS011;19470;49.322;7.218;2023-04-25T08:47:00;23.33;;;20.85;;
18274;SDS011;19470;49.322;7.218;2023-04-25T08:49:29;38.15;;;35.22;;
18274;SDS011;19470;49.322;7.218;2023-04-25T08:51:56;16.02;;;13.23;;
18274;SDS011;19470;49.322;7.218;2023-04-25T08:54:26;16.50;;;14.80;;
18274;SDS011;19470;49.322;7.218;2023-04-25T08:56:55;16.92;;;15.13;;
18274;SDS011;19470;49.322;7.218;2023-04-25T08:59:23;15.00;;;13.73;;
18274;SDS011;19470;49.322;7.218;2023-04-25T09:01:50;15.25;;;13.70;;
18274;SDS011;19470;49.322;7.218;2023-04-25T09:04:18;14.73;;;13.52;;
18274;SDS011;19470;49.322;7.218;2023-04-25T09:06:45;13.55;;;12.45;;
18274;SDS011;19470;49.322;7.218;2023-04-25T09:09:11;15.93;;;14.07;;
18274;SDS011;19470;49.322;7.218;2023-04-25T09:11:39;16.10;;;14.85;;
18274;SDS011;19470;49.322;7.218;2023-04-25T09:14:12;13.30;;;12.10;;
18274;SDS011;19470;49.322;7.218;2023-04-25T09:16:58;11.23;;;10.13;;
18274;SDS011;19470;49.322;7.218;2023-04-25T09:19:27;12.40;;;11.20;;
18274;SDS011;19470;49.322;7.218;2023-04-25T09:21:56;23.50;;;21.95;;
18274;SDS011;19470;49.322;7.218;2023-04-25T09:24:33;8.27;;;7.32;;
18274;SDS011;19470;49.322;7.218;2023-04-25T09:27:02;9.05;;;7.45;;
18274;SDS011;19470;49.322;7.218;2023-04-25T09:29:30;8.90;;;8.07;;
18274;SDS011;19470;49.322;7.218;2023-04-25T09:32:10;9.27;;;7.68;;
18274;SDS011;19470;49.322;7.218;2023-04-25T09:34:46;10.00;;;7.70;;
18274;SDS011;19470;49.322;7.218;2023-04-25T09:37:17;8.15;;;7.28;;
18274;SDS011;19470;49.322;7.218;2023-04-25T09:39:45;11.98;;;7.97;;
18274;SDS011;19470;49.322;7.218;2023-04-25T09:42:13;12.88;;;7.88;;
18274;SDS011;19470;49.322;7.218;2023-04-25T09:44:42;10.40;;;9.40;;
18274;SDS011;19470;49.322;7.218;2023-04-25T09:47:10;9.10;;;8.13;;
18274;SDS011;19470;49.322;7.218;2023-04-25T09:49:38;12.02;;;9.98;;
18274;SDS011;19470;49.322;7.218;2023-04-25T09:52:08;22.73;;;21.15;;
18274;SDS011;19470;49.322;7.218;2023-04-25T09:54:35;15.43;;;14.38;;
18274;SDS011;19470;49.322;7.218;2023-04-25T09:57:03;11.60;;;10.73;;
18274;SDS011;19470;49.322;7.218;2023-04-25T09:59:37;16.73;;;15.63;;
18274;SDS011;19470;49.322;7.218;2023-04-25T10:02:05;13.48;;;12.50;;
18274;SDS011;19470;49.322;7.218;2023-04-25T10:04:33;15.75;;;14.27;;
18274;SDS011;19470;49.322;7.218;2023-04-25T10:07:01;32.15;;;29.95;;
18274;SDS011;19470;49.322;7.218;2023-04-25T10:09:31;12.77;;;11.77;;
18274;SDS011;19470;49.322;7.218;2023-04-25T10:11:59;23.35;;;20.05;;
18274;SDS011;19470;49.322;7.218;2023-04-25T10:14:26;12.75;;;11.25;;
18274;SDS011;19470;49.322;7.218;2023-04-25T10:16:54;15.32;;;12.63;;
18274;SDS011;19470;49.322;7.218;2023-04-25T10:19:23;14.13;;;12.82;;
18274;SDS011;19470;49.322;7.218;2023-04-25T10:21:51;21.27;;;19.10;;
18274;SDS011;19470;49.322;7.218;2023-04-25T10:24:20;17.08;;;12.73;;
18274;SDS011;19470;49.322;7.218;2023-04-25T10:26:48;17.02;;;15.48;;
18274;SDS011;19470;49.322;7.218;2023-04-25T10:29:21;19.48;;;17.85;;
18274;SDS011;19470;49.322;7.218;2023-04-25T10:31:48;15.15;;;13.77;;
18274;SDS011;19470;49.322;7.218;2023-04-25T10:34:15;28.13;;;25.98;;
18274;SDS011;19470;49.322;7.218;2023-04-25T10:36:42;283.75;;;269.40;;
18274;SDS011;19470;49.322;7.218;2023-04-25T10:39:14;920.28;;;855.25;;
18274;SDS011;19470;49.322;7.218;2023-04-25T10:41:54;1121.68;;;999.90;;
18274;SDS011;19470;49.322;7.218;2023-04-25T10:44:22;1277.95;;;999.90;;
18274;SDS011;19470;49.322;7.218;2023-04-25T10:46:48;1654.57;;;999.90;;
18274;SDS011;19470;49.322;7.218;2023-04-25T10:49:31;1536.15;;;999.90;;
18274;SDS011;19470;49.322;7.218;2023-04-25T10:52:11;1470.72;;;999.90;;
18274;SDS011;19470;49.322;7.218;2023-04-25T10:54:40;1405.55;;;999.90;;
18274;SDS011;19470;49.322;7.218;2023-04-25T10:57:09;1233.57;;;999.90;;
18274;SDS011;19470;49.322;7.218;2023-04-25T10:59:52;1217.05;;;999.90;;
18274;SDS011;19470;49.322;7.218;2023-04-25T11:02:19;1008.78;;;930.42;;
18274;SDS011;19470;49.322;7.218;2023-04-25T11:04:45;860.80;;;800.42;;
18274;SDS011;19470;49.322;7.218;2023-04-25T11:07:13;906.92;;;841.50;;
18274;SDS011;19470;49.322;7.218;2023-04-25T11:09:49;1023.50;;;942.60;;
18274;SDS011;19470;49.322;7.218;2023-04-25T11:12:17;1331.13;;;999.90;;
18274;SDS011;19470;49.322;7.218;2023-04-25T11:14:44;1360.90;;;999.90;;
18274;SDS011;19470;49.322;7.218;2023-04-25T11:17:10;1368.30;;;999.90;;
18274;SDS011;19470;49.322;7.218;2023-04-25T11:19:37;1317.90;;;999.90;;
18274;SDS011;19470;49.322;7.218;2023-04-25T11:22:03;1288.55;;;999.90;;
18274;SDS011;19470;49.322;7.218;2023-04-25T11:24:31;1308.68;;;999.90;;
18274;SDS011;19470;49.322;7.218;2023-04-25T11:26:59;1340.70;;;999.90;;
18274;SDS011;19470;49.322;7.218;2023-04-25T11:29:28;1307.43;;;999.90;;
18274;SDS011;19470;49.322;7.218;2023-04-25T11:31:56;1282.70;;;999.90;;
18274;SDS011;19470;49.322;7.218;2023-04-25T11:34:23;1180.32;;;999.90;;
18274;SDS011;19470;49.322;7.218;2023-04-25T11:36:50;1194.78;;;999.90;;
18274;SDS011;19470;49.322;7.218;2023-04-25T11:39:18;1146.03;;;999.90;;
18274;SDS011;19470;49.322;7.218;2023-04-25T11:41:44;1097.55;;;999.90;;
18274;SDS011;19470;49.322;7.218;2023-04-25T11:44:11;1107.88;;;999.90;;
18274;SDS011;19470;49.322;7.218;2023-04-25T11:46:39;1139.82;;;999.90;;
18274;SDS011;19470;49.322;7.218;2023-04-25T11:49:06;1189.28;;;999.90;;
18274;SDS011;19470;49.322;7.218;2023-04-25T11:51:37;1169.25;;;999.90;;
18274;SDS011;19470;49.322;7.218;2023-04-25T11:54:04;1187.10;;;999.90;;
18274;SDS011;19470;49.322;7.218;2023-04-25T11:56:31;1126.82;;;999.90;;
18274;SDS011;19470;49.322;7.218;2023-04-25T11:58:58;1115.75;;;999.90;;
18274;SDS011;19470;49.322;7.218;2023-04-25T12:01:27;1155.55;;;999.90;;
18274;SDS011;19470;49.322;7.218;2023-04-25T12:03:56;1188.28;;;999.90;;
18274;SDS011;19470;49.322;7.218;2023-04-25T12:06:25;1305.38;;;999.90;;
18274;SDS011;19470;49.322;7.218;2023-04-25T12:09:00;1472.82;;;999.90;;
18274;SDS011;19470;49.322;7.218;2023-04-25T12:11:29;1999.90;;;999.90;;
18274;SDS011;19470;49.322;7.218;2023-04-25T12:13:56;1999.90;;;999.90;;
18274;SDS011;19470;49.322;7.218;2023-04-25T12:16:27;1999.90;;;999.90;;
18274;SDS011;19470;49.322;7.218;2023-04-25T12:18:53;1999.90;;;999.90;;
18274;SDS011;19470;49.322;7.218;2023-04-25T12:21:23;1999.90;;;999.90;;
18274;SDS011;19470;49.322;7.218;2023-04-25T12:23:49;1999.90;;;999.90;;
18274;SDS011;19470;49.322;7.218;2023-04-25T12:26:17;1999.90;;;999.90;;
18274;SDS011;19470;49.322;7.218;2023-04-25T12:28:45;1999.90;;;999.90;;
18274;SDS011;19470;49.322;7.218;2023-04-25T12:31:12;1999.90;;;999.90;;
18274;SDS011;19470;49.322;7.218;2023-04-25T12:33:40;1999.90;;;999.90;;
18274;SDS011;19470;49.322;7.218;2023-04-25T12:36:07;1999.90;;;999.90;;
18274;SDS011;19470;49.322;7.218;2023-04-25T12:38:38;1999.90;;;999.90;;
18274;SDS011;19470;49.322;7.218;2023-04-25T12:41:05;1999.90;;;999.90;;
18274;SDS011;19470;49.322;7.218;2023-04-25T12:43:32;1999.90;;;999.90;;
18274;SDS011;19470;49.322;7.218;2023-04-25T12:45:59;1999.90;;;999.90;;
18274;SDS011;19470;49.322;7.218;2023-04-25T12:48:25;1999.90;;;999.90;;
18274;SDS011;19470;49.322;7.218;2023-04-25T12:50:52;968.78;;;879.13;;
18274;SDS011;19470;49.322;7.218;2023-04-25T12:53:19;1131.63;;;999.90;;
18274;SDS011;19470;49.322;7.218;2023-04-25T12:55:48;1241.35;;;999.90;;
18274;SDS011;19470;49.322;7.218;2023-04-25T12:58:15;1193.78;;;999.90;;
18274;SDS011;19470;49.322;7.218;2023-04-25T13:00:43;1144.28;;;999.90;;
18274;SDS011;19470;49.322;7.218;2023-04-25T13:03:10;1132.40;;;999.90;;
18274;SDS011;19470;49.322;7.218;2023-04-25T13:05:37;1127.28;;;999.90;;
18274;SDS011;19470;49.322;7.218;2023-04-25T13:08:04;1171.25;;;999.90;;
18274;SDS011;19470;49.322;7.218;2023-04-25T13:10:30;1089.78;;;998.45;;
18274;SDS011;19470;49.322;7.218;2023-04-25T13:13:00;1177.65;;;999.90;;
18274;SDS011;19470;49.322;7.218;2023-04-25T13:15:27;1089.88;;;998.17;;
18274;SDS011;19470;49.322;7.218;2023-04-25T13:17:54;1135.40;;;999.90;;
18274;SDS011;19470;49.322;7.218;2023-04-25T13:20:21;919.78;;;851.90;;
18274;SDS011;19470;49.322;7.218;2023-04-25T13:22:48;946.15;;;875.90;;
18274;SDS011;19470;49.322;7.218;2023-04-25T13:25:14;799.58;;;744.08;;
18274;SDS011;19470;49.322;7.218;2023-04-25T13:27:41;917.05;;;851.35;;
18274;SDS011;19470;49.322;7.218;2023-04-25T13:30:10;1064.80;;;979.55;;
18274;SDS011;19470;49.322;7.218;2023-04-25T13:32:37;1089.55;;;997.58;;
18274;SDS011;19470;49.322;7.218;2023-04-25T13:35:04;1170.63;;;999.90;;
18274;SDS011;19470;49.322;7.218;2023-04-25T13:37:33;1126.78;;;999.90;;
18274;SDS011;19470;49.322;7.218;2023-04-25T13:39:59;1173.70;;;999.90;;
18274;SDS011;19470;49.322;7.218;2023-04-25T13:42:27;1242.65;;;999.90;;
18274;SDS011;19470;49.322;7.218;2023-04-25T13:44:53;1308.05;;;999.90;;
18274;SDS011;19470;49.322;7.218;2023-04-25T13:47:21;1390.00;;;999.90;;
18274;SDS011;19470;49.322;7.218;2023-04-25T13:49:49;1387.15;;;999.90;;
18274;SDS011;19470;49.322;7.218;2023-04-25T13:52:15;1416.55;;;999.90;;
18274;SDS011;19470;49.322;7.218;2023-04-25T13:54:42;1405.15;;;999.90;;
18274;SDS011;19470;49.322;7.218;2023-04-25T14:00:29;1375.55;;;999.90;;
18274;SDS011;19470;49.322;7.218;2023-04-25T14:02:57;1351.97;;;999.90;;
18274;SDS011;19470;49.322;7.218;2023-04-25T14:05:24;1321.15;;;999.90;;
18274;SDS011;19470;49.322;7.218;2023-04-25T14:07:50;1305.85;;;999.90;;
18274;SDS011;19470;49.322;7.218;2023-04-25T14:10:17;1275.43;;;999.90;;
18274;SDS011;19470;49.322;7.218;2023-04-25T14:12:43;1265.38;;;999.90;;
18274;SDS011;19470;49.322;7.218;2023-04-25T14:15:10;1239.43;;;999.90;;
18274;SDS011;19470;49.322;7.218;2023-04-25T14:17:36;1228.38;;;999.90;;
18274;SDS011;19470;49.322;7.218;2023-04-25T14:20:06;1233.43;;;999.90;;
18274;SDS011;19470;49.322;7.218;2023-04-25T14:22:34;1307.50;;;999.90;;